Woodson Terrace, Missouri
Current Conditions -  °F | °C
As of 12:51 PM on Tuesday 21 Oct 2014 (Local Time) from KSTL Reporting Station
Clear Clear  
Wind Chill: 65°   Ceiling: Unl
Heat Index: 65°   Visibility: 10mi
Dew Point: 46°   Wind: 12mph
Humidity: 50%   Direction: 30°NNE
Pressure: 30.13"   Gusts: NA
Location:  38.7422°N, 90.3457°W
Report Text: KSTL 211751Z 03010KT 10SM CLR 18/08 A3013 RMK AO2 SLP202 T01830078 10189 20089 50000
Loading
Personal Weather Stations






























Interactive Weather Map
Tropical Storm Tracking
New forecast layout! Learn more

10-Day Weather Forecast

Advertisements
Track Severe Weather on mobile